Time;durP1;ratioP1;P1;durP2;ratioP2;P2;SDS_P1;SDS_P2;PMS_P1;PMS_P2;Temp;Humidity;BMP_temperature;BMP_pressure;BME280_temperature;BME280_humidity;BME280_pressure;Samples;Min_cycle;Max_cycle;Signal;HPM_P1;HPM_P2
2022/10/08 00:00:20;;;;;;;13.23;11.23;;;17.60;99.90;;;;;;4591274;19;20019;-35
2022/10/08 00:02:11;;;;;;;14.60;11.88;;;17.60;99.90;;;;;;4592411;19;20013;-40
2022/10/08 00:03:43;;;;;;;14.10;11.68;;;17.60;99.90;;;;;;4591336;19;20053;-39
2022/10/08 00:05:15;;;;;;;14.07;11.07;;;17.60;99.90;;;;;;4589799;19;20408;-33
2022/10/08 00:06:47;;;;;;;14.45;11.20;;;17.60;99.90;;;;;;4591496;19;20015;-38
2022/10/08 00:08:18;;;;;;;13.43;10.52;;;17.60;99.90;;;;;;4592463;19;20030;-39
2022/10/08 00:09:49;;;;;;;12.77;10.27;;;17.60;99.90;;;;;;4592717;19;20006;-40
2022/10/08 00:11:33;;;;;;;14.00;11.82;;;17.60;99.90;;;;;;4591475;19;20007;-38
2022/10/08 00:13:05;;;;;;;14.35;12.27;;;17.60;99.90;;;;;;4591129;19;20019;-41
2022/10/08 00:14:39;;;;;;;13.00;10.93;;;17.60;99.90;;;;;;4590751;19;20340;-33
2022/10/08 00:16:31;;;;;;;14.55;11.13;;;17.60;99.90;;;;;;4591594;19;20025;-37
2022/10/08 00:18:02;;;;;;;12.85;10.75;;;17.60;99.90;;;;;;4591916;19;20045;-35
2022/10/08 00:19:33;;;;;;;13.88;11.32;;;17.60;99.90;;;;;;4591679;19;20013;-37
2022/10/08 00:21:13;;;;;;;13.60;10.15;;;17.60;99.90;;;;;;4591671;19;20018;-38
2022/10/08 00:22:44;;;;;;;13.60;11.40;;;17.60;99.90;;;;;;4592332;19;20011;-37
2022/10/08 00:24:16;;;;;;;14.63;11.52;;;17.60;99.90;;;;;;4590111;19;20002;-35
2022/10/08 00:25:47;;;;;;;15.25;12.25;;;17.60;99.90;;;;;;4591576;19;20337;-36
2022/10/08 00:27:25;;;;;;;14.10;11.48;;;17.60;99.90;;;;;;4592125;19;20070;-37
2022/10/08 00:28:58;;;;;;;16.45;12.15;;;17.60;99.90;;;;;;4590596;19;20010;-36
2022/10/08 00:30:29;;;;;;;14.38;11.63;;;17.60;99.90;;;;;;4591390;19;20317;-40
2022/10/08 00:32:01;;;;;;;13.25;11.05;;;17.60;99.90;;;;;;4592352;19;20015;-38
2022/10/08 00:33:34;;;;;;;13.48;11.93;;;17.60;99.90;;;;;;4590752;19;20010;-36
2022/10/08 00:35:06;;;;;;;14.55;11.02;;;17.60;99.90;;;;;;4590644;19;20010;-38
2022/10/08 00:36:37;;;;;;;14.35;11.73;;;17.60;99.90;;;;;;4591468;19;20022;-36
2022/10/08 00:38:09;;;;;;;14.65;11.75;;;17.60;99.90;;;;;;4590353;19;20464;-42
2022/10/08 00:39:40;;;;;;;16.35;12.02;;;17.60;99.90;;;;;;4591423;19;20046;-35
2022/10/08 00:41:19;;;;;;;16.30;12.90;;;17.60;99.90;;;;;;4591792;19;20025;-41
2022/10/08 00:42:51;;;;;;;13.98;11.98;;;17.60;99.90;;;;;;4591800;19;20010;-36
2022/10/08 00:44:53;;;;;;;15.57;12.05;;;17.60;99.90;;;;;;4591233;19;20019;-35
2022/10/08 00:46:29;;;;;;;16.52;13.70;;;17.60;99.90;;;;;;4591366;19;20361;-33
2022/10/08 00:48:00;;;;;;;16.17;12.82;;;17.60;99.90;;;;;;4591276;19;20010;-36
2022/10/08 00:49:31;;;;;;;14.63;12.20;;;17.60;99.90;;;;;;4590843;19;20003;-35
2022/10/08 00:51:02;;;;;;;15.82;12.05;;;17.60;99.90;;;;;;4589909;19;20018;-39
2022/10/08 00:52:35;;;;;;;15.05;12.10;;;17.60;99.90;;;;;;4590122;19;20018;-38
2022/10/08 00:54:06;;;;;;;14.55;11.95;;;17.60;99.90;;;;;;4589968;19;20018;-32
2022/10/08 00:55:39;;;;;;;14.18;11.55;;;17.60;99.90;;;;;;4589392;19;20031;-35
2022/10/08 00:57:10;;;;;;;14.27;11.38;;;17.60;99.90;;;;;;4590612;19;20015;-33
2022/10/08 00:58:41;;;;;;;13.68;11.63;;;17.60;99.90;;;;;;4590893;19;20007;-36
2022/10/08 01:00:15;;;;;;;14.13;10.95;;;17.60;99.90;;;;;;4590336;19;20018;-41
2022/10/08 01:01:46;;;;;;;15.63;11.45;;;17.60;99.90;;;;;;4590821;19;20048;-37
2022/10/08 01:03:17;;;;;;;13.05;11.23;;;17.60;99.90;;;;;;4590562;19;20014;-39
2022/10/08 01:04:49;;;;;;;13.48;11.02;;;17.60;99.90;;;;;;4590734;19;20346;-41
2022/10/08 01:06:26;;;;;;;14.02;12.15;;;17.60;99.90;;;;;;4590184;19;20010;-40
2022/10/08 01:08:21;;;;;;;14.25;11.43;;;17.60;99.90;;;;;;4590316;19;20448;-40
2022/10/08 01:10:04;;;;;;;13.05;10.88;;;17.60;99.90;;;;;;4589958;19;20453;-38
2022/10/08 01:11:42;;;;;;;14.88;11.65;;;17.60;99.90;;;;;;4589878;19;20044;-37
2022/10/08 01:13:18;;;;;;;14.20;10.98;;;17.60;99.90;;;;;;4589792;19;20479;-36
2022/10/08 01:14:58;;;;;;;14.20;11.30;;;17.60;99.90;;;;;;4589052;19;20044;-38
2022/10/08 01:16:39;;;;;;;14.00;11.60;;;17.60;99.90;;;;;;4590184;19;20006;-38
2022/10/08 01:18:29;;;;;;;14.70;11.60;;;17.60;99.90;;;;;;4591077;19;20010;-34
2022/10/08 01:20:28;;;;;;;12.68;10.88;;;17.60;99.90;;;;;;4591685;19;19999;-35
2022/10/08 01:22:21;;;;;;;12.70;10.93;;;17.60;99.90;;;;;;4590043;19;20010;-37
2022/10/08 01:24:07;;;;;;;14.25;11.27;;;17.60;99.90;;;;;;4589107;19;20015;-36
2022/10/08 01:25:56;;;;;;;12.80;11.50;;;17.60;99.90;;;;;;4589727;19;20026;-41
2022/10/08 01:27:33;;;;;;;16.17;11.98;;;17.60;99.90;;;;;;4590640;19;20007;-43
2022/10/08 01:29:05;;;;;;;14.27;11.95;;;17.60;99.90;;;;;;4591161;19;20007;-37
2022/10/08 01:30:39;;;;;;;14.25;12.00;;;17.60;99.90;;;;;;4591588;19;20003;-37
2022/10/08 01:32:13;;;;;;;13.00;11.32;;;17.60;99.90;;;;;;4589523;19;20039;-37
2022/10/08 01:33:49;;;;;;;15.48;12.18;;;17.60;99.90;;;;;;4589577;19;20010;-38
2022/10/08 01:35:24;;;;;;;14.10;12.02;;;17.60;99.90;;;;;;4589817;19;20483;-33
2022/10/08 01:36:56;;;;;;;12.88;11.15;;;17.60;99.90;;;;;;4590086;19;20014;-37
2022/10/08 01:38:28;;;;;;;13.95;11.30;;;17.60;99.90;;;;;;4589488;19;20318;-39
2022/10/08 01:40:00;;;;;;;11.98;10.63;;;17.60;99.90;;;;;;4589456;19;20011;-36
2022/10/08 01:41:31;;;;;;;13.82;11.52;;;17.60;99.90;;;;;;4589744;19;20074;-36
2022/10/08 01:43:05;;;;;;;13.38;11.45;;;17.60;99.90;;;;;;4589890;19;20039;-38
2022/10/08 01:44:39;;;;;;;14.40;11.23;;;17.60;99.90;;;;;;4589356;19;20031;-36
2022/10/08 01:46:15;;;;;;;15.60;11.90;;;17.60;99.90;;;;;;4589223;19;20013;-36
2022/10/08 01:47:46;;;;;;;13.80;11.55;;;17.60;99.90;;;;;;4589727;19;20070;-37
2022/10/08 01:49:21;;;;;;;13.32;11.98;;;17.60;99.90;;;;;;4589800;19;20006;-39
2022/10/08 01:51:01;;;;;;;12.93;11.27;;;17.60;99.90;;;;;;4588700;19;20011;-38
2022/10/08 01:52:36;;;;;;;14.80;11.10;;;17.60;99.90;;;;;;4590267;19;20015;-37
2022/10/08 01:54:08;;;;;;;12.20;10.90;;;17.60;99.90;;;;;;4590314;19;20015;-34
2022/10/08 01:55:41;;;;;;;13.15;11.75;;;17.60;99.90;;;;;;4589464;19;20016;-36
2022/10/08 01:57:12;;;;;;;14.40;12.23;;;17.60;99.90;;;;;;4589097;19;20071;-39
2022/10/08 01:58:57;;;;;;;15.13;12.18;;;17.60;99.90;;;;;;4589091;19;20007;-40
2022/10/08 02:00:28;;;;;;;13.55;11.27;;;17.60;99.90;;;;;;4589346;19;20082;-36
2022/10/08 02:02:05;;;;;;;14.15;12.10;;;17.60;99.90;;;;;;4590285;19;20039;-36
2022/10/08 02:03:36;;;;;;;13.07;11.27;;;17.60;99.90;;;;;;4590293;19;20449;-32
2022/10/08 02:05:08;;;;;;;13.70;11.65;;;17.60;99.90;;;;;;4590353;19;20007;-36
2022/10/08 02:06:41;;;;;;;15.40;12.45;;;17.60;99.90;;;;;;4589578;19;20019;-33
2022/10/08 02:08:13;;;;;;;14.65;12.57;;;17.60;99.90;;;;;;4593719;19;20010;-38
2022/10/08 02:09:45;;;;;;;;;;;17.60;99.90;;;;;;4595186;19;20014;-35
2022/10/08 02:11:16;;;;;;;15.20;12.15;;;17.60;99.90;;;;;;4594938;19;19924;-39
2022/10/08 02:12:47;;;;;;;14.85;12.02;;;17.60;99.90;;;;;;4595078;19;20018;-36
2022/10/08 02:14:24;;;;;;;14.23;12.27;;;17.60;99.90;;;;;;4594321;19;20018;-35
2022/10/08 02:16:11;;;;;;;13.52;12.07;;;17.60;99.90;;;;;;4593492;19;20018;-36
2022/10/08 02:18:06;;;;;;;14.15;12.68;;;17.60;99.90;;;;;;4593624;19;20031;-33
2022/10/08 02:19:55;;;;;;;14.10;12.02;;;17.60;99.90;;;;;;4594150;19;20011;-41
2022/10/08 02:21:27;;;;;;;17.23;12.43;;;17.60;99.90;;;;;;4593584;19;20014;-37
2022/10/08 02:23:09;;;;;;;14.07;11.57;;;17.60;99.90;;;;;;4594079;19;20327;-34
2022/10/08 02:24:47;;;;;;;15.77;12.52;;;17.60;99.90;;;;;;4591928;19;20014;-33
2022/10/08 02:26:24;;;;;;;13.68;12.10;;;17.60;99.90;;;;;;4593129;19;20014;-36
2022/10/08 02:28:04;;;;;;;14.35;12.63;;;17.60;99.90;;;;;;4593133;19;20602;-39
2022/10/08 02:29:52;;;;;;;15.02;12.45;;;17.60;99.90;;;;;;4594011;19;20035;-36
2022/10/08 02:31:39;;;;;;;15.05;12.40;;;17.60;99.90;;;;;;4592954;19;20010;-38
2022/10/08 02:33:14;;;;;;;14.35;12.63;;;17.60;99.90;;;;;;4593745;19;20021;-36
2022/10/08 02:34:53;;;;;;;14.30;12.38;;;17.60;99.90;;;;;;4591553;19;20015;-35
2022/10/08 02:36:27;;;;;;;14.65;13.15;;;17.60;99.90;;;;;;4593066;19;20034;-40
2022/10/08 02:38:25;;;;;;;16.48;13.70;;;17.60;99.90;;;;;;4593076;19;20011;-40
2022/10/08 02:40:06;;;;;;;15.07;12.95;;;17.60;99.90;;;;;;4591718;19;20344;-35
2022/10/08 02:41:42;;;;;;;16.65;14.13;;;17.60;99.90;;;;;;4592032;19;20044;-35
2022/10/08 02:43:18;;;;;;;14.45;12.93;;;17.60;99.90;;;;;;4591702;19;20002;-34
2022/10/08 02:44:59;;;;;;;15.60;13.85;;;17.60;99.90;;;;;;4591884;19;20015;-39
2022/10/08 02:46:32;;;;;;;19.23;13.77;;;17.60;99.90;;;;;;4591765;19;20476;-36
2022/10/08 02:48:05;;;;;;;14.95;12.73;;;17.60;99.90;;;;;;4591752;19;20543;-36
2022/10/08 02:49:42;;;;;;;16.85;12.80;;;17.60;99.90;;;;;;4591864;19;20005;-35
2022/10/08 02:51:14;;;;;;;17.25;14.70;;;17.60;99.90;;;;;;4590632;19;20039;-39
2022/10/08 02:52:45;;;;;;;19.27;14.45;;;17.60;99.90;;;;;;4592019;19;20016;-33
2022/10/08 02:54:18;;;;;;;15.40;13.25;;;17.60;99.90;;;;;;4590987;19;20132;-37
2022/10/08 02:56:13;;;;;;;15.88;14.18;;;17.60;99.90;;;;;;4592099;19;19998;-34
2022/10/08 02:57:47;;;;;;;14.52;13.00;;;17.60;99.90;;;;;;4591464;19;20108;-40
2022/10/08 02:59:19;;;;;;;16.17;14.10;;;17.60;99.90;;;;;;4591358;19;20030;-38
2022/10/08 03:00:53;;;;;;;18.27;14.48;;;17.60;99.90;;;;;;4591815;19;20015;-36
2022/10/08 03:02:35;;;;;;;14.98;13.18;;;17.60;99.90;;;;;;4591591;19;20405;-36
2022/10/08 03:04:51;;;;;;;17.27;14.55;;;17.60;99.90;;;;;;4591365;19;20014;-37
2022/10/08 03:06:22;;;;;;;17.30;13.65;;;17.60;99.90;;;;;;4591350;19;20014;-36
2022/10/08 03:07:53;;;;;;;14.90;13.13;;;17.60;99.90;;;;;;4591350;19;20512;-38
2022/10/08 03:09:25;;;;;;;16.90;14.73;;;17.60;99.90;;;;;;4591510;19;20010;-39
2022/10/08 03:10:56;;;;;;;17.25;14.50;;;17.60;99.90;;;;;;4591350;19;20011;-41
2022/10/08 03:12:29;;;;;;;17.02;15.23;;;17.60;99.90;;;;;;4591111;19;20025;-35
2022/10/08 03:14:04;;;;;;;18.35;14.73;;;17.60;99.90;;;;;;4590591;19;20026;-35
2022/10/08 03:15:36;;;;;;;15.65;13.95;;;17.60;99.90;;;;;;4591580;19;20035;-35
2022/10/08 03:17:07;;;;;;;16.80;14.13;;;17.60;99.90;;;;;;4591328;19;20006;-36
2022/10/08 03:18:38;;;;;;;15.70;13.90;;;17.60;99.90;;;;;;4590234;19;20031;-39
2022/10/08 03:20:09;;;;;;;17.60;14.43;;;17.60;99.90;;;;;;4591156;19;20031;-34
2022/10/08 03:21:42;;;;;;;16.02;14.32;;;17.60;99.90;;;;;;4591283;19;20007;-37
2022/10/08 03:23:14;;;;;;;17.75;14.68;;;17.60;99.90;;;;;;4590891;19;20018;-34
2022/10/08 03:24:45;;;;;;;16.98;15.07;;;17.60;99.90;;;;;;4589481;19;20111;-39
2022/10/08 03:26:17;;;;;;;18.83;15.32;;;17.60;99.90;;;;;;4591195;19;20040;-40
2022/10/08 03:27:50;;;;;;;16.80;14.98;;;17.60;99.90;;;;;;4591479;19;20014;-36
2022/10/08 03:29:21;;;;;;;16.75;13.98;;;17.60;99.90;;;;;;4591346;19;20006;-36
2022/10/08 03:30:52;;;;;;;17.60;14.95;;;17.60;99.90;;;;;;4590799;19;20017;-35
2022/10/08 03:32:24;;;;;;;17.45;15.63;;;17.60;99.90;;;;;;4591345;19;20014;-40
2022/10/08 03:33:55;;;;;;;18.50;15.70;;;17.60;99.90;;;;;;4590860;19;20456;-37
2022/10/08 03:35:26;;;;;;;16.13;14.48;;;17.60;99.90;;;;;;4591211;19;20020;-37
2022/10/08 03:36:57;;;;;;;16.42;14.65;;;17.60;99.90;;;;;;4590915;19;20534;-37
2022/10/08 03:38:28;;;;;;;17.50;15.30;;;17.60;99.90;;;;;;4590839;19;20006;-36
2022/10/08 03:39:59;;;;;;;19.25;15.93;;;17.50;99.90;;;;;;4590833;19;20018;-40
2022/10/08 03:41:31;;;;;;;17.20;15.38;;;17.50;99.90;;;;;;4590603;19;20472;-39
2022/10/08 03:43:20;;;;;;;18.67;16.67;;;17.60;99.90;;;;;;4592337;19;20019;-40
2022/10/08 03:44:52;;;;;;;17.58;15.63;;;17.60;99.90;;;;;;4592574;19;20022;-33
2022/10/08 03:46:23;;;;;;;19.88;16.05;;;17.60;99.90;;;;;;4593515;19;20003;-38
2022/10/08 03:47:54;;;;;;;17.77;15.88;;;17.50;99.90;;;;;;4593406;19;20031;-36
2022/10/08 03:49:26;;;;;;;18.42;15.95;;;17.50;99.90;;;;;;4591473;19;20011;-39
2022/10/08 03:51:02;;;;;;;17.90;15.75;;;17.60;99.90;;;;;;4592049;19;20021;-34
2022/10/08 03:52:33;;;;;;;17.15;15.35;;;17.60;99.90;;;;;;4592494;19;20465;-40
2022/10/08 03:54:04;;;;;;;21.17;16.75;;;17.50;99.90;;;;;;4592551;19;20058;-37
2022/10/08 03:55:35;;;;;;;17.23;15.43;;;17.50;99.90;;;;;;4592675;19;20011;-40
2022/10/08 03:57:06;;;;;;;18.73;16.70;;;17.50;99.90;;;;;;4592532;19;20080;-34
2022/10/08 03:58:37;;;;;;;18.15;16.00;;;17.50;99.90;;;;;;4593170;19;20062;-34
2022/10/08 04:00:09;;;;;;;18.17;15.73;;;17.50;99.90;;;;;;4592296;19;20381;-37
2022/10/08 04:01:40;;;;;;;16.92;15.13;;;17.50;99.90;;;;;;4592900;19;20020;-39
2022/10/08 04:03:11;;;;;;;17.92;14.75;;;17.50;99.90;;;;;;4592872;19;20003;-39
2022/10/08 04:04:42;;;;;;;18.23;16.30;;;17.50;99.90;;;;;;4592966;19;20007;-37
2022/10/08 04:06:13;;;;;;;18.73;16.70;;;17.50;99.90;;;;;;4592263;19;20456;-37
2022/10/08 04:07:45;;;;;;;18.98;16.70;;;17.50;99.90;;;;;;4592368;19;20056;-40
2022/10/08 04:09:16;;;;;;;19.00;16.60;;;17.50;99.90;;;;;;4590081;19;20316;-36
2022/10/08 04:10:47;;;;;;;19.13;16.95;;;17.50;99.90;;;;;;4591530;19;20014;-36
2022/10/08 04:12:18;;;;;;;19.38;16.92;;;17.50;99.90;;;;;;4592318;19;20011;-36
2022/10/08 04:13:49;;;;;;;19.25;17.08;;;17.50;99.90;;;;;;4590948;19;20018;-35
2022/10/08 04:15:20;;;;;;;18.92;16.92;;;17.50;99.90;;;;;;4591923;19;20017;-36
2022/10/08 04:16:53;;;;;;;18.55;16.52;;;17.50;99.90;;;;;;4591989;19;20014;-38
2022/10/08 04:18:24;;;;;;;19.92;17.35;;;17.50;99.90;;;;;;4592463;19;20014;-33
2022/10/08 04:19:56;;;;;;;18.58;16.58;;;17.50;99.90;;;;;;4592582;19;20440;-37
2022/10/08 04:21:27;;;;;;;;;;;17.50;99.90;;;;;;4593465;19;20027;-37
2022/10/08 04:22:59;;;;;;;20.17;18.00;;;17.50;99.90;;;;;;4591804;19;19915;-36
2022/10/08 04:24:30;;;;;;;20.45;17.10;;;17.50;99.90;;;;;;4591176;19;20007;-38
2022/10/08 04:26:01;;;;;;;20.30;18.17;;;17.50;99.90;;;;;;4592173;19;20010;-39
2022/10/08 04:27:32;;;;;;;20.17;16.00;;;17.50;99.90;;;;;;4592174;19;20031;-34
2022/10/08 04:29:03;;;;;;;20.00;16.63;;;17.50;99.90;;;;;;4591980;19;20021;-42
2022/10/08 04:30:34;;;;;;;21.08;18.17;;;17.40;99.90;;;;;;4589929;19;20326;-37
2022/10/08 04:32:05;;;;;;;18.85;16.45;;;17.50;99.90;;;;;;4592392;19;20034;-35
2022/10/08 04:33:36;;;;;;;19.27;17.25;;;17.50;99.90;;;;;;4591491;19;20022;-35
2022/10/08 04:35:08;;;;;;;20.00;17.52;;;17.50;99.90;;;;;;4589498;19;20011;-39
2022/10/08 04:36:39;;;;;;;22.30;18.17;;;17.50;99.90;;;;;;4591584;19;20016;-35
2022/10/08 04:38:10;;;;;;;20.35;17.95;;;17.40;99.90;;;;;;4592608;19;20091;-35
2022/10/08 04:39:41;;;;;;;21.20;17.73;;;17.40;99.90;;;;;;4591888;19;20576;-37
2022/10/08 04:41:23;;;;;;;20.45;17.80;;;17.50;99.90;;;;;;4592089;19;20078;-36
2022/10/08 04:42:55;;;;;;;20.35;18.23;;;17.50;99.90;;;;;;4591417;19;20444;-35
2022/10/08 04:44:26;;;;;;;19.77;17.63;;;17.50;99.90;;;;;;4592254;19;20018;-39
2022/10/08 04:45:57;;;;;;;22.23;17.83;;;17.50;99.90;;;;;;4591521;19;20014;-32
2022/10/08 04:47:28;;;;;;;19.70;17.58;;;17.40;99.90;;;;;;4591536;19;20006;-35
2022/10/08 04:48:59;;;;;;;21.98;17.77;;;17.40;99.90;;;;;;4592174;19;20003;-35
2022/10/08 04:50:31;;;;;;;;;;;17.40;99.90;;;;;;4592566;19;20015;-39
2022/10/08 04:52:02;;;;;;;21.75;17.77;;;17.40;99.90;;;;;;4590217;19;19978;-33
2022/10/08 04:53:33;;;;;;;21.92;17.73;;;17.40;99.90;;;;;;4591570;19;20048;-33
2022/10/08 04:55:04;;;;;;;19.13;17.13;;;17.40;99.90;;;;;;4591129;19;20015;-35
2022/10/08 04:56:36;;;;;;;20.35;18.25;;;17.40;99.90;;;;;;4591994;19;20002;-42
2022/10/08 04:58:07;;;;;;;21.52;18.40;;;17.40;99.90;;;;;;4591433;19;20017;-40
2022/10/08 04:59:38;;;;;;;19.88;17.23;;;17.40;99.90;;;;;;4588977;19;20007;-37
2022/10/08 05:01:10;;;;;;;21.23;18.75;;;17.50;99.90;;;;;;4588656;19;20017;-33
2022/10/08 05:02:41;;;;;;;20.38;18.17;;;17.50;99.90;;;;;;4588915;19;20406;-39
2022/10/08 05:04:12;;;;;;;22.08;18.08;;;17.50;99.90;;;;;;4589077;19;20018;-35
2022/10/08 05:05:44;;;;;;;20.42;18.23;;;17.50;99.90;;;;;;4588812;19;20018;-41
2022/10/08 05:07:15;;;;;;;21.83;17.77;;;17.50;99.90;;;;;;4588728;19;20023;-34
2022/10/08 05:08:46;;;;;;;20.17;17.85;;;17.50;99.90;;;;;;4588035;19;20460;-40
2022/10/08 05:10:18;;;;;;;21.38;19.08;;;17.60;99.90;;;;;;4587364;19;20045;-39
2022/10/08 05:11:50;;;;;;;20.98;17.90;;;17.50;99.90;;;;;;4587307;19;20010;-41
2022/10/08 05:13:21;;;;;;;;;;;17.50;99.90;;;;;;4588072;19;20014;-38
2022/10/08 05:14:52;;;;;;;21.77;18.07;;;17.50;99.90;;;;;;4586048;19;20339;-40
2022/10/08 05:16:23;;;;;;;22.27;18.80;;;17.50;99.90;;;;;;4589433;19;20500;-33
2022/10/08 05:17:54;;;;;;;20.48;18.33;;;17.50;99.90;;;;;;4589256;19;20084;-41
2022/10/08 05:19:25;;;;;;;19.95;17.88;;;17.50;99.90;;;;;;4588636;19;20322;-34
2022/10/08 05:21:00;;;;;;;25.55;18.60;;;17.50;99.90;;;;;;4588046;19;20389;-36
2022/10/08 05:22:31;;;;;;;19.85;17.80;;;17.50;99.90;;;;;;4587351;19;20025;-36
2022/10/08 05:24:05;;;;;;;22.10;17.95;;;17.50;99.90;;;;;;4587076;19;20410;-38
2022/10/08 05:25:36;;;;;;;20.85;17.88;;;17.50;99.90;;;;;;4587074;19;20015;-39
2022/10/08 05:27:08;;;;;;;23.52;18.25;;;17.50;99.90;;;;;;4586838;19;20006;-37
2022/10/08 05:28:39;;;;;;;23.55;17.30;;;17.50;99.90;;;;;;4586596;19;20019;-34
2022/10/08 05:30:10;;;;;;;25.52;18.20;;;17.50;99.90;;;;;;4589867;19;20010;-41
2022/10/08 05:31:41;;;;;;;19.50;17.40;;;17.50;99.90;;;;;;4589026;19;20006;-39
2022/10/08 05:33:13;;;;;;;20.48;18.27;;;17.50;99.90;;;;;;4588860;19;20011;-35
2022/10/08 05:34:44;;;;;;;19.95;16.90;;;17.50;99.90;;;;;;4587443;19;20028;-35
2022/10/08 05:36:17;;;;;;;21.17;16.50;;;17.50;99.90;;;;;;4587829;19;20014;-37
2022/10/08 05:37:48;;;;;;;19.80;17.40;;;17.50;99.90;;;;;;4587427;19;20447;-37
2022/10/08 05:39:20;;;;;;;20.10;17.17;;;17.50;99.90;;;;;;4586930;19;20014;-37
2022/10/08 05:40:51;;;;;;;20.25;17.92;;;17.50;99.90;;;;;;4587082;19;20074;-34
2022/10/08 05:42:22;;;;;;;21.42;18.42;;;17.50;99.90;;;;;;4589385;19;20014;-37
2022/10/08 05:43:53;;;;;;;20.85;17.65;;;17.50;99.90;;;;;;4593911;19;20458;-39
2022/10/08 05:45:25;;;;;;;20.80;17.77;;;17.50;99.90;;;;;;4593660;19;20026;-36
2022/10/08 05:46:57;;;;;;;20.83;18.63;;;17.50;99.90;;;;;;4593705;19;20015;-35
2022/10/08 05:48:28;;;;;;;22.30;19.90;;;17.50;99.90;;;;;;4592773;19;20455;-35
2022/10/08 05:49:59;;;;;;;20.90;18.67;;;17.50;99.90;;;;;;4592640;19;20070;-39
2022/10/08 05:51:31;;;;;;;23.27;20.17;;;17.50;99.90;;;;;;4590915;19;20031;-36
2022/10/08 05:53:02;;;;;;;22.83;20.30;;;17.50;99.90;;;;;;4592191;19;20019;-39
2022/10/08 05:54:33;;;;;;;24.00;21.20;;;17.40;99.90;;;;;;4591204;19;20031;-34
2022/10/08 05:56:05;;;;;;;23.65;21.00;;;17.50;99.90;;;;;;4594751;19;20025;-33
2022/10/08 05:57:36;;;;;;;21.98;19.80;;;17.40;99.90;;;;;;4594841;19;20027;-39
2022/10/08 05:59:15;;;;;;;23.17;20.73;;;17.50;99.90;;;;;;4592381;19;20018;-32
2022/10/08 06:00:58;;;;;;;22.55;20.30;;;17.50;99.90;;;;;;4593357;19;20374;-35
2022/10/08 06:02:29;;;;;;;22.65;19.83;;;17.50;99.90;;;;;;4593290;19;20385;-35
2022/10/08 06:04:02;;;;;;;24.52;19.80;;;17.50;99.90;;;;;;4594738;19;20015;-34
2022/10/08 06:05:33;;;;;;;24.33;21.17;;;17.50;99.90;;;;;;4594434;19;20347;-34
2022/10/08 06:07:04;;;;;;;23.77;21.30;;;17.50;99.90;;;;;;4595597;19;20471;-36
2022/10/08 06:08:35;;;;;;;24.02;20.95;;;17.50;99.90;;;;;;4594924;19;20030;-40
2022/10/08 06:10:07;;;;;;;24.63;22.05;;;17.50;99.90;;;;;;4593273;19;20038;-37
2022/10/08 06:11:38;;;;;;;24.65;22.02;;;17.50;99.90;;;;;;4596153;19;20010;-36
2022/10/08 06:13:09;;;;;;;22.60;20.15;;;17.50;99.90;;;;;;4594660;19;20014;-35
2022/10/08 06:14:40;;;;;;;25.73;21.20;;;17.60;99.90;;;;;;4594303;19;20021;-37
2022/10/08 06:16:12;;;;;;;;;;;17.50;99.90;;;;;;4595727;19;20021;-36
2022/10/08 06:17:43;;;;;;;22.85;20.08;;;17.50;99.90;;;;;;4594358;19;19919;-37
2022/10/08 06:19:14;;;;;;;22.20;19.90;;;17.50;99.90;;;;;;4593384;19;20015;-35
2022/10/08 06:20:47;;;;;;;22.13;19.27;;;17.50;99.90;;;;;;4594490;19;20006;-39
2022/10/08 06:22:19;;;;;;;20.90;18.67;;;17.60;99.90;;;;;;4594525;19;20024;-37
2022/10/08 06:23:51;;;;;;;21.75;19.42;;;17.60;99.90;;;;;;4593963;19;20031;-34
2022/10/08 06:25:22;;;;;;;23.77;20.00;;;17.60;99.90;;;;;;4594603;19;20010;-42
2022/10/08 06:26:53;;;;;;;21.35;19.00;;;17.60;99.90;;;;;;4594590;19;20022;-34
2022/10/08 06:28:25;;;;;;;21.15;18.77;;;17.60;99.90;;;;;;4594734;19;20006;-35
2022/10/08 06:29:55;;;;;;;21.63;19.33;;;17.70;99.90;;;;;;4593232;19;20011;-39
2022/10/08 06:31:27;;;;;;;23.02;20.02;;;17.70;99.90;;;;;;4594269;19;20329;-37
2022/10/08 06:32:58;;;;;;;22.00;19.23;;;17.80;99.90;;;;;;4591795;19;20531;-34
2022/10/08 06:34:29;;;;;;;26.35;20.35;;;17.80;99.90;;;;;;4591237;19;20023;-40
2022/10/08 06:36:27;;;;;;;22.30;19.30;;;17.90;99.90;;;;;;4593840;19;20070;-36
2022/10/08 06:37:58;;;;;;;20.90;18.35;;;17.90;99.90;;;;;;4589998;19;20014;-39
2022/10/08 06:39:31;;;;;;;20.95;18.70;;;18.00;99.90;;;;;;4590112;19;20090;-34
2022/10/08 06:41:05;;;;;;;22.77;19.55;;;18.10;99.90;;;;;;4593097;19;20034;-34
2022/10/08 06:42:36;;;;;;;22.27;19.83;;;18.10;99.90;;;;;;4592290;19;20358;-34
2022/10/08 06:44:11;;;;;;;21.35;18.90;;;18.20;99.90;;;;;;4591994;19;20015;-34
2022/10/08 06:45:42;;;;;;;29.63;26.52;;;18.20;99.90;;;;;;4591271;19;20019;-40
2022/10/08 06:47:14;;;;;;;30.30;27.20;;;16.90;99.90;;;;;;4592035;19;20017;-34
2022/10/08 06:48:45;;;;;;;33.50;30.33;;;16.00;99.90;;;;;;4590716;19;20355;-38
2022/10/08 06:50:16;;;;;;;32.70;29.30;;;15.60;99.90;;;;;;4590600;19;20456;-35
2022/10/08 06:51:47;;;;;;;28.73;25.90;;;15.50;99.90;;;;;;4588783;19;20042;-36
2022/10/08 06:53:18;;;;;;;29.55;26.50;;;15.40;99.90;;;;;;4590486;19;20081;-41
2022/10/08 06:54:49;;;;;;;28.95;25.92;;;15.40;99.90;;;;;;4589717;19;20563;-33
2022/10/08 06:56:21;;;;;;;29.40;26.38;;;15.40;99.90;;;;;;4591064;19;20011;-44
2022/10/08 06:57:52;;;;;;;28.88;25.90;;;15.40;99.90;;;;;;4590692;19;20324;-38
2022/10/08 06:59:23;;;;;;;28.50;25.70;;;15.40;99.90;;;;;;4590276;19;20114;-34
2022/10/08 07:01:01;;;;;;;29.33;26.40;;;15.40;99.90;;;;;;4589916;19;20010;-34
2022/10/08 07:02:32;;;;;;;29.48;26.48;;;15.50;99.90;;;;;;4589454;19;20011;-39
2022/10/08 07:04:03;;;;;;;29.05;25.85;;;15.40;99.90;;;;;;4589813;19;20500;-37
2022/10/08 07:05:35;;;;;;;;;;;15.50;99.90;;;;;;4593104;19;20031;-37
2022/10/08 07:07:06;;;;;;;29.23;26.23;;;15.50;99.90;;;;;;4591188;19;19919;-38
2022/10/08 07:08:37;;;;;;;31.90;28.60;;;15.50;99.90;;;;;;4591543;19;20026;-35
2022/10/08 07:10:08;;;;;;;29.48;26.58;;;15.50;99.90;;;;;;4591512;19;20010;-35
2022/10/08 07:11:39;;;;;;;30.83;27.55;;;15.50;99.90;;;;;;4590698;19;20031;-34
2022/10/08 07:13:10;;;;;;;30.48;27.10;;;15.50;99.90;;;;;;4590362;19;20007;-37
2022/10/08 07:14:41;;;;;;;31.20;27.85;;;15.60;99.90;;;;;;4589355;19;20006;-36
2022/10/08 07:16:13;;;;;;;29.63;26.63;;;15.60;99.90;;;;;;4591709;19;20025;-34
2022/10/08 07:17:45;;;;;;;30.52;27.52;;;15.60;99.90;;;;;;4591354;19;20006;-38
2022/10/08 07:19:16;;;;;;;32.33;28.95;;;15.60;99.90;;;;;;4591435;19;20010;-37
2022/10/08 07:20:54;;;;;;;30.73;27.67;;;15.60;99.90;;;;;;4594108;19;20038;-36
2022/10/08 07:22:25;;;;;;;31.77;28.67;;;15.60;99.90;;;;;;4593873;19;20022;-34
2022/10/08 07:23:58;;;;;;;;;;;15.60;99.90;;;;;;4593641;19;20329;-35
2022/10/08 07:25:29;;;;;;;30.67;27.63;;;15.60;99.90;;;;;;4593073;19;19923;-39
2022/10/08 07:27:00;;;;;;;28.52;25.60;;;15.70;99.90;;;;;;4593074;19;20014;-36
2022/10/08 07:28:33;;;;;;;28.92;26.00;;;15.70;99.90;;;;;;4592116;19;20099;-41
2022/10/08 07:30:05;;;;;;;28.50;25.70;;;15.70;99.90;;;;;;4591915;19;20030;-42
2022/10/08 07:31:37;;;;;;;27.98;25.15;;;15.70;99.90;;;;;;4591458;19;20034;-34
2022/10/08 07:33:08;;;;;;;27.65;24.75;;;15.80;99.90;;;;;;4590315;19;20022;-34
2022/10/08 07:34:39;;;;;;;27.30;24.50;;;15.80;99.90;;;;;;4589987;19;20011;-39
2022/10/08 07:36:20;;;;;;;28.00;25.25;;;15.80;99.90;;;;;;4592757;19;20014;-33
2022/10/08 07:37:51;;;;;;;27.13;24.17;;;15.80;99.90;;;;;;4593675;19;20467;-35
2022/10/08 07:39:22;;;;;;;28.15;25.10;;;15.80;99.90;;;;;;4593388;19;20022;-33
2022/10/08 07:40:53;;;;;;;26.15;23.42;;;15.90;99.90;;;;;;4592968;19;20035;-36
2022/10/08 07:42:25;;;;;;;26.23;23.48;;;15.90;99.90;;;;;;4592436;19;20081;-39
2022/10/08 07:43:58;;;;;;;25.90;23.27;;;15.90;99.90;;;;;;4591227;19;20010;-34
2022/10/08 07:45:30;;;;;;;25.05;22.55;;;15.90;99.90;;;;;;4590995;19;20007;-36
2022/10/08 07:47:01;;;;;;;;;;;15.90;99.90;;;;;;4592019;19;20011;-40
2022/10/08 07:48:32;;;;;;;23.25;20.85;;;16.00;99.90;;;;;;4591065;19;19942;-42
2022/10/08 07:50:04;;;;;;;21.83;19.52;;;16.00;99.90;;;;;;4591091;19;20039;-33
2022/10/08 07:51:35;;;;;;;22.98;20.65;;;16.00;99.90;;;;;;4590198;19;20025;-35
2022/10/08 07:53:06;;;;;;;23.65;21.25;;;16.00;99.90;;;;;;4592064;19;20019;-34
2022/10/08 07:54:37;;;;;;;23.05;20.67;;;16.00;99.90;;;;;;4590698;19;20022;-35
2022/10/08 07:56:09;;;;;;;21.23;19.13;;;16.00;99.90;;;;;;4591972;19;20444;-34
2022/10/08 07:57:40;;;;;;;22.13;19.83;;;16.00;99.90;;;;;;4591153;19;20027;-33